Time;durP1;ratioP1;P1;durP2;ratioP2;P2;SDS_P1;SDS_P2;PMS_P1;PMS_P2;Temp;Humidity;BMP_temperature;BMP_pressure;BME280_temperature;BME280_humidity;BME280_pressure;Samples;Min_cycle;Max_cycle;Signal;HPM_P1;HPM_P2
2022/03/08 00:00:26;;;;;;;7.30;4.75;;;2.00;99.90;;;;;;6239106;23;20437;-83
2022/03/08 00:02:54;;;;;;;6.97;4.30;;;1.90;99.90;;;;;;6214088;23;20092;-78
2022/03/08 00:05:20;;;;;;;6.75;4.55;;;1.90;99.90;;;;;;6214492;23;20124;-78
2022/03/08 00:07:47;;;;;;;6.93;4.63;;;2.50;99.90;;;;;;6239020;22;20340;-82
2022/03/08 00:10:16;;;;;;;8.82;4.40;;;1.70;99.90;;;;;;6238252;23;20074;-80
2022/03/08 00:12:42;;;;;;;8.27;4.60;;;1.60;99.90;;;;;;6239676;23;20340;-78
2022/03/08 00:15:12;;;;;;;8.57;5.07;;;1.50;99.90;;;;;;6239499;23;20086;-77
2022/03/08 00:17:38;;;;;;;8.85;5.45;;;1.50;99.90;;;;;;6241379;23;20016;-81
2022/03/08 00:20:09;;;;;;;7.32;5.05;;;1.50;99.90;;;;;;6240762;23;20074;-80
2022/03/08 00:22:36;;;;;;;7.30;5.00;;;1.40;99.90;;;;;;6214590;23;20012;-78
2022/03/08 00:25:03;;;;;;;9.07;4.97;;;1.40;99.90;;;;;;6239545;23;20016;-80
2022/03/08 00:27:30;;;;;;;8.95;5.30;;;1.40;99.90;;;;;;6240413;23;20012;-80
2022/03/08 00:29:56;;;;;;;10.35;5.40;;;1.30;99.90;;;;;;6238505;23;20589;-81
2022/03/08 00:32:22;;;;;;;7.20;5.05;;;1.30;99.90;;;;;;6240150;23;20521;-79
2022/03/08 00:34:48;;;;;;;7.65;5.18;;;1.20;99.90;;;;;;6239902;23;20116;-82
2022/03/08 00:37:13;;;;;;;7.45;5.07;;;1.10;99.90;;;;;;6240531;23;20328;-81
2022/03/08 00:39:39;;;;;;;9.45;5.45;;;1.00;99.90;;;;;;6241397;23;20012;-78
2022/03/08 00:42:11;;;;;;;8.57;5.32;;;1.00;99.90;;;;;;6216502;23;20023;-81
2022/03/08 00:44:38;;;;;;;10.73;5.22;;;1.00;99.90;;;;;;6241159;23;20416;-79
2022/03/08 00:47:04;;;;;;;14.88;5.55;;;0.90;99.90;;;;;;6242224;23;20095;-83
2022/03/08 00:49:29;;;;;;;10.82;5.60;;;0.90;99.90;;;;;;6216717;23;20016;-80
2022/03/08 00:51:55;;;;;;;9.15;5.88;;;0.80;99.90;;;;;;6216591;23;20020;-81
2022/03/08 00:54:21;;;;;;;9.80;5.28;;;0.80;99.90;;;;;;6216387;23;20012;-77
2022/03/08 00:56:46;;;;;;;9.55;5.70;;;0.80;99.90;;;;;;6244102;23;20129;-79
2022/03/08 00:59:12;;;;;;;9.50;5.72;;;0.80;99.90;;;;;;6215880;23;20016;-81
2022/03/08 01:01:38;;;;;;;8.88;5.20;;;0.70;99.90;;;;;;6241712;23;20019;-78
2022/03/08 01:04:03;;;;;;;10.75;6.00;;;0.70;99.90;;;;;;6241367;23;20015;-82
2022/03/08 01:06:29;;;;;;;11.68;6.35;;;0.60;99.90;;;;;;6216489;23;20091;-81
2022/03/08 01:08:55;;;;;;;9.80;6.22;;;0.60;99.90;;;;;;6241764;23;20020;-81
2022/03/08 01:11:20;;;;;;;12.45;6.70;;;0.50;99.90;;;;;;6216414;23;20016;-78
2022/03/08 01:13:46;;;;;;;11.07;6.28;;;0.40;99.90;;;;;;6240676;23;20044;-81
2022/03/08 01:16:12;;;;;;;8.75;5.57;;;0.40;99.90;;;;;;6215846;23;20023;-79
2022/03/08 01:18:37;;;;;;;9.82;6.32;;;0.40;99.90;;;;;;6216561;23;20019;-77
2022/03/08 01:21:03;;;;;;;11.70;6.18;;;0.50;99.90;;;;;;6242253;23;20004;-78
2022/03/08 01:23:30;;;;;;;11.23;6.57;;;0.40;99.90;;;;;;6241279;23;20020;-80
2022/03/08 01:25:56;;;;;;;12.65;6.68;;;0.40;99.90;;;;;;6241970;23;20012;-77
2022/03/08 01:28:22;;;;;;;9.63;6.28;;;0.40;99.90;;;;;;6215630;23;20051;-80
2022/03/08 01:30:47;;;;;;;12.05;7.10;;;0.40;99.90;;;;;;6216690;23;20286;-82
2022/03/08 01:33:14;;;;;;;10.70;6.82;;;0.50;99.90;;;;;;6216188;23;20082;-82
2022/03/08 01:35:39;;;;;;;12.07;6.78;;;0.50;99.90;;;;;;6215998;23;20048;-81
2022/03/08 01:38:05;;;;;;;9.90;6.53;;;0.60;99.90;;;;;;6216264;23;20020;-79
2022/03/08 01:40:31;;;;;;;10.15;6.97;;;0.60;99.90;;;;;;6216169;23;20012;-80
2022/03/08 01:42:57;;;;;;;11.77;6.57;;;0.60;99.90;;;;;;6215980;23;20093;-81
2022/03/08 01:45:24;;;;;;;15.20;6.28;;;0.70;99.90;;;;;;6189020;23;20024;-80
2022/03/08 01:47:51;;;;;;;10.70;6.82;;;0.60;99.90;;;;;;6216260;23;20320;-79
2022/03/08 01:50:17;;;;;;;11.80;6.93;;;0.70;99.90;;;;;;6191681;23;20346;-77
2022/03/08 01:52:43;;;;;;;11.25;6.82;;;0.70;99.90;;;;;;6191254;23;20016;-79
2022/03/08 01:55:11;;;;;;;12.10;7.10;;;0.70;99.90;;;;;;6216219;23;20024;-80
2022/03/08 01:57:37;;;;;;;10.55;6.78;;;0.60;99.90;;;;;;6189966;23;20091;-83
2022/03/08 02:00:06;;;;;;;12.30;7.47;;;0.60;99.90;;;;;;6215076;23;20012;-79
2022/03/08 02:02:32;;;;;;;13.52;7.50;;;0.60;99.90;;;;;;6190624;23;20042;-81
2022/03/08 02:04:57;;;;;;;11.25;7.13;;;0.60;99.90;;;;;;6190928;23;20023;-83
2022/03/08 02:07:24;;;;;;;13.52;7.03;;;0.60;99.90;;;;;;6191005;23;20012;-82
2022/03/08 02:09:50;;;;;;;11.73;7.20;;;0.60;99.90;;;;;;6190647;23;20351;-82
2022/03/08 02:12:16;;;;;;;13.07;7.78;;;0.60;99.90;;;;;;6242982;23;20062;-80
2022/03/08 02:14:42;;;;;;;14.65;8.13;;;0.60;99.90;;;;;;6214710;23;20388;-79
2022/03/08 02:17:08;;;;;;;13.90;7.97;;;0.50;99.90;;;;;;6215884;23;20012;-79
2022/03/08 02:19:33;;;;;;;13.32;7.75;;;0.80;99.90;;;;;;6190850;23;20336;-79
2022/03/08 02:21:59;;;;;;;13.75;7.28;;;0.50;99.90;;;;;;6215888;23;20428;-83
2022/03/08 02:24:25;;;;;;;12.77;8.13;;;0.50;99.90;;;;;;6215895;23;20019;-82
2022/03/08 02:26:51;;;;;;;12.02;8.05;;;0.50;99.90;;;;;;6215381;23;20369;-81
2022/03/08 02:29:17;;;;;;;11.63;7.57;;;0.50;99.90;;;;;;6198281;23;20055;-81
2022/03/08 02:31:43;;;;;;;13.52;7.85;;;0.50;99.90;;;;;;6215948;23;20083;-78
2022/03/08 02:34:08;;;;;;;10.55;7.85;;;0.50;99.90;;;;;;6215133;23;20012;-78
2022/03/08 02:36:34;;;;;;;13.57;8.85;;;0.50;99.90;;;;;;6240905;23;20008;-82
2022/03/08 02:39:00;;;;;;;12.27;7.93;;;0.50;99.90;;;;;;6240599;23;20364;-82
2022/03/08 02:41:25;;;;;;;13.65;7.85;;;0.50;99.90;;;;;;6240464;23;20035;-79
2022/03/08 02:43:52;;;;;;;13.10;8.63;;;0.50;99.90;;;;;;6214574;23;20012;-80
2022/03/08 02:46:17;;;;;;;15.57;8.93;;;0.40;99.90;;;;;;6240494;23;20405;-80
2022/03/08 02:48:43;;;;;;;14.85;8.57;;;0.40;99.90;;;;;;6240991;23;20038;-81
2022/03/08 02:51:08;;;;;;;12.50;8.45;;;0.40;99.90;;;;;;6241316;23;20383;-79
2022/03/08 02:53:34;;;;;;;15.18;8.93;;;0.40;99.90;;;;;;6239897;23;20400;-80
2022/03/08 02:56:00;;;;;;;15.07;9.18;;;0.40;99.90;;;;;;6240449;23;20008;-79
2022/03/08 02:58:26;;;;;;;13.70;8.63;;;0.40;99.90;;;;;;6214446;23;20066;-81
2022/03/08 03:00:51;;;;;;;14.00;9.55;;;0.30;99.90;;;;;;6240740;23;20064;-78
2022/03/08 03:03:17;;;;;;;15.18;9.27;;;0.30;99.90;;;;;;6215903;23;20020;-81
2022/03/08 03:05:43;;;;;;;13.68;9.07;;;1.10;99.90;;;;;;6214225;23;20559;-82
2022/03/08 03:08:09;;;;;;;15.95;9.35;;;0.30;99.90;;;;;;6215601;23;20008;-78
2022/03/08 03:10:35;;;;;;;14.27;8.95;;;0.30;99.90;;;;;;6215523;23;20020;-80
2022/03/08 03:13:01;;;;;;;15.05;9.25;;;0.30;99.90;;;;;;6240153;23;20018;-80
2022/03/08 03:15:28;;;;;;;15.15;9.05;;;0.30;99.90;;;;;;6215159;23;20091;-80
2022/03/08 03:17:54;;;;;;;14.38;9.40;;;0.20;99.90;;;;;;6240435;23;20014;-83
2022/03/08 03:20:22;;;;;;;14.60;9.77;;;0.20;99.90;;;;;;6240905;23;20044;-79
2022/03/08 03:22:49;;;;;;;17.05;10.05;;;0.20;99.90;;;;;;6241935;23;20008;-77
2022/03/08 03:25:17;;;;;;;14.75;9.65;;;0.10;99.90;;;;;;6215970;23;20482;-78
2022/03/08 03:27:43;;;;;;;14.88;10.23;;;0.10;99.90;;;;;;6216039;23;20145;-79
2022/03/08 03:30:12;;;;;;;19.83;10.20;;;0.10;99.90;;;;;;6240701;23;20059;-83
2022/03/08 03:32:39;;;;;;;16.02;9.48;;;0.10;99.90;;;;;;6216489;23;20454;-83
2022/03/08 03:35:06;;;;;;;13.65;9.00;;;0.00;99.90;;;;;;6216225;23;20016;-81
2022/03/08 03:37:31;;;;;;;17.33;10.82;;;0.00;99.90;;;;;;6217975;23;20012;-83
2022/03/08 03:39:57;;;;;;;16.17;10.18;;;0.00;99.90;;;;;;6241343;23;20580;-78
2022/03/08 03:42:23;;;;;;;19.75;10.18;;;0.00;99.90;;;;;;6241052;23;20023;-78
2022/03/08 03:44:49;;;;;;;16.27;10.20;;;0.00;99.90;;;;;;6242332;22;20016;-81
2022/03/08 03:47:14;;;;;;;15.82;9.75;;;0.00;99.90;;;;;;6240733;23;20070;-81
2022/03/08 03:49:40;;;;;;;21.30;10.68;;;0.00;99.90;;;;;;6240795;23;20020;-79
2022/03/08 03:52:06;;;;;;;16.02;9.90;;;0.00;99.90;;;;;;6215092;23;20361;-79
2022/03/08 03:54:32;;;;;;;29.10;11.60;;;0.10;99.90;;;;;;6241041;23;20009;-79
2022/03/08 03:56:57;;;;;;;16.30;10.73;;;0.10;99.90;;;;;;6241709;23;20012;-76
2022/03/08 03:59:23;;;;;;;17.67;10.55;;;0.10;99.90;;;;;;6239948;23;20011;-80
2022/03/08 04:01:49;;;;;;;16.88;10.18;;;0.00;99.90;;;;;;6241022;23;20091;-79
2022/03/08 04:04:14;;;;;;;20.45;10.77;;;0.00;99.90;;;;;;6215213;23;20077;-79
2022/03/08 04:06:40;;;;;;;16.50;9.95;;;0.10;99.90;;;;;;6240713;22;20023;-79
2022/03/08 04:09:06;;;;;;;16.42;11.07;;;0.00;99.90;;;;;;6241152;23;20012;-79
2022/03/08 04:11:32;;;;;;;18.23;11.20;;;0.00;99.90;;;;;;6240668;23;20012;-80
2022/03/08 04:13:58;;;;;;;15.25;10.38;;;0.00;99.90;;;;;;6214645;23;20023;-79
2022/03/08 04:16:24;;;;;;;22.60;11.15;;;0.10;99.90;;;;;;6242915;23;20016;-78
2022/03/08 04:18:49;;;;;;;17.88;10.75;;;0.00;99.90;;;;;;6217618;23;20111;-77
2022/03/08 04:21:15;;;;;;;20.42;11.02;;;0.00;99.90;;;;;;6243537;23;20073;-80
2022/03/08 04:23:41;;;;;;;18.90;11.73;;;0.10;99.90;;;;;;6217805;23;20012;-80
2022/03/08 04:26:06;;;;;;;20.70;11.07;;;0.00;99.90;;;;;;6243440;23;20008;-79
2022/03/08 04:28:32;;;;;;;21.00;11.95;;;0.00;99.90;;;;;;6242292;23;20091;-79
2022/03/08 04:30:58;;;;;;;20.33;11.50;;;0.00;99.90;;;;;;6192887;23;20024;-82
2022/03/08 04:33:24;;;;;;;19.10;11.27;;;-0.10;99.90;;;;;;6217754;23;20511;-79
2022/03/08 04:35:50;;;;;;;18.08;11.23;;;0.00;99.90;;;;;;6192083;23;20047;-79
2022/03/08 04:38:15;;;;;;;20.55;11.82;;;-0.10;99.90;;;;;;6191919;23;20052;-82
2022/03/08 04:40:41;;;;;;;21.02;12.00;;;0.30;99.90;;;;;;6217206;23;20015;-81
2022/03/08 04:43:07;;;;;;;17.20;11.73;;;-0.10;99.90;;;;;;6216766;23;20332;-79
2022/03/08 04:45:33;;;;;;;21.70;11.57;;;-0.10;99.90;;;;;;6243685;23;20397;-78
2022/03/08 04:47:59;;;;;;;20.17;11.30;;;-0.10;99.90;;;;;;6216377;23;20020;-78
2022/03/08 04:50:25;;;;;;;21.23;12.73;;;-0.20;99.90;;;;;;6191503;23;20016;-78
2022/03/08 04:52:50;;;;;;;19.25;11.90;;;-0.10;99.90;;;;;;6217551;23;20051;-78
2022/03/08 04:55:17;;;;;;;18.20;12.25;;;-0.20;99.90;;;;;;6216931;23;20024;-82
2022/03/08 04:57:43;;;;;;;21.75;11.32;;;0.10;99.90;;;;;;6191854;23;20014;-81
2022/03/08 05:00:11;;;;;;;25.15;12.27;;;-0.20;99.90;;;;;;6215757;23;20008;-80
2022/03/08 05:02:39;;;;;;;18.55;11.70;;;-0.20;99.90;;;;;;6217892;23;20016;-82
2022/03/08 05:05:06;;;;;;;18.98;11.57;;;-0.20;99.90;;;;;;6216358;23;20139;-77
2022/03/08 05:07:32;;;;;;;23.77;12.60;;;-0.20;99.90;;;;;;6217177;23;20019;-82
2022/03/08 05:09:58;;;;;;;20.92;12.85;;;-0.30;99.90;;;;;;6191460;23;20019;-81
2022/03/08 05:12:23;;;;;;;21.83;12.65;;;-0.30;99.90;;;;;;6216317;23;20149;-78
2022/03/08 05:14:49;;;;;;;21.10;12.18;;;-0.30;99.90;;;;;;6190932;23;20023;-80
2022/03/08 05:17:15;;;;;;;22.52;12.07;;;-0.30;99.90;;;;;;6217053;23;20099;-82
2022/03/08 05:19:40;;;;;;;24.13;12.48;;;-0.30;99.90;;;;;;6216544;23;20455;-80
2022/03/08 05:22:06;;;;;;;19.70;12.90;;;-0.20;99.90;;;;;;6192377;23;20087;-83
2022/03/08 05:24:32;;;;;;;22.40;12.52;;;-0.20;99.90;;;;;;6192064;23;20031;-80
2022/03/08 05:26:57;;;;;;;21.83;12.85;;;-0.30;99.90;;;;;;6191729;23;20008;-79
2022/03/08 05:29:23;;;;;;;23.83;12.93;;;-0.30;99.90;;;;;;6200359;23;20282;-78
2022/03/08 05:31:48;;;;;;;25.58;12.35;;;-0.20;99.90;;;;;;6241666;23;20420;-77
2022/03/08 05:34:14;;;;;;;25.08;12.98;;;-0.30;99.90;;;;;;6242403;23;20090;-78
2022/03/08 05:36:40;;;;;;;21.67;13.32;;;-0.30;99.90;;;;;;6242364;23;20441;-80
2022/03/08 05:39:06;;;;;;;23.42;12.88;;;-0.40;99.90;;;;;;6216398;23;20379;-83
2022/03/08 05:41:33;;;;;;;24.35;13.70;;;-0.30;99.90;;;;;;6216719;23;20341;-82
2022/03/08 05:43:58;;;;;;;20.98;13.02;;;-0.40;99.90;;;;;;6240984;23;20105;-80
2022/03/08 05:46:24;;;;;;;20.27;13.23;;;-0.20;99.90;;;;;;6215747;23;20024;-81
2022/03/08 05:48:49;;;;;;;22.65;13.50;;;-0.30;99.90;;;;;;6215995;23;20344;-80
2022/03/08 05:51:15;;;;;;;25.55;14.40;;;-0.30;99.90;;;;;;6240807;23;20111;-78
2022/03/08 05:53:41;;;;;;;26.55;14.00;;;-0.40;99.90;;;;;;6240430;23;20070;-82
2022/03/08 05:56:08;;;;;;;25.20;14.07;;;-0.40;99.90;;;;;;6241437;23;20381;-82
2022/03/08 05:58:33;;;;;;;22.30;13.77;;;-0.30;99.90;;;;;;6216007;23;20007;-80
2022/03/08 06:00:59;;;;;;;23.75;13.10;;;-0.40;99.90;;;;;;6215644;23;20680;-79
2022/03/08 06:03:25;;;;;;;21.98;14.00;;;-0.40;99.90;;;;;;6241188;23;20016;-79
2022/03/08 06:05:50;;;;;;;23.48;13.48;;;-0.40;99.90;;;;;;6241911;23;20012;-78
2022/03/08 06:08:16;;;;;;;27.98;14.15;;;-0.50;99.90;;;;;;6241866;22;20012;-78
2022/03/08 06:10:41;;;;;;;22.10;13.68;;;0.30;99.90;;;;;;6242043;23;20016;-78
2022/03/08 06:13:07;;;;;;;21.58;13.85;;;-0.40;99.90;;;;;;6241098;23;20020;-80
2022/03/08 06:15:33;;;;;;;23.88;13.80;;;-0.50;99.90;;;;;;6241207;23;20012;-79
2022/03/08 06:17:58;;;;;;;24.98;14.23;;;-0.40;99.90;;;;;;6241310;23;20008;-80
2022/03/08 06:20:24;;;;;;;23.05;13.52;;;-0.40;99.90;;;;;;6241470;23;20105;-80
2022/03/08 06:22:50;;;;;;;23.08;14.07;;;-0.50;99.90;;;;;;6241895;23;20467;-79
2022/03/08 06:25:15;;;;;;;21.75;13.90;;;-0.50;99.90;;;;;;6241613;23;20024;-79
2022/03/08 06:27:41;;;;;;;22.38;13.73;;;-0.40;99.90;;;;;;6241381;23;20012;-80
2022/03/08 06:30:08;;;;;;;24.67;14.43;;;-0.40;99.90;;;;;;6239477;23;20016;-79
2022/03/08 06:32:33;;;;;;;25.35;14.57;;;-0.40;99.90;;;;;;6216247;23;20051;-79
2022/03/08 06:34:59;;;;;;;21.05;13.27;;;-0.40;99.90;;;;;;6215916;23;20321;-79
2022/03/08 06:37:25;;;;;;;24.23;13.70;;;-0.50;99.90;;;;;;6240883;23;20020;-80
2022/03/08 06:39:50;;;;;;;28.80;15.05;;;-0.40;99.90;;;;;;6240933;23;20016;-77
2022/03/08 06:42:16;;;;;;;24.35;13.00;;;-0.40;99.90;;;;;;6241606;23;20008;-76
2022/03/08 06:44:42;;;;;;;21.90;13.82;;;2.50;99.90;;;;;;6240552;23;20091;-80
2022/03/08 06:47:09;;;;;;;21.60;13.18;;;1.50;99.90;;;;;;6216447;23;20059;-81
2022/03/08 06:49:40;;;;;;;24.30;13.82;;;1.20;99.90;;;;;;6241402;23;20012;-78
2022/03/08 06:52:08;;;;;;;25.15;13.27;;;0.90;99.90;;;;;;6242731;23;20012;-80
2022/03/08 06:54:37;;;;;;;21.70;13.55;;;0.70;99.90;;;;;;6216654;23;20047;-79
2022/03/08 06:57:03;;;;;;;23.40;13.13;;;0.50;99.90;;;;;;6217345;23;20008;-81
2022/03/08 06:59:29;;;;;;;22.92;12.98;;;0.40;99.90;;;;;;6215256;23;20444;-81
2022/03/08 07:01:56;;;;;;;22.20;13.95;;;0.40;99.90;;;;;;6241978;23;20074;-79
2022/03/08 07:04:22;;;;;;;27.92;13.40;;;0.30;99.90;;;;;;6242131;23;20008;-77
2022/03/08 07:06:48;;;;;;;25.63;14.18;;;0.30;99.90;;;;;;6240987;22;20055;-81
2022/03/08 07:09:14;;;;;;;23.25;14.02;;;0.30;99.90;;;;;;6216406;23;20016;-80
2022/03/08 07:11:43;;;;;;;22.35;13.90;;;0.30;99.90;;;;;;6240509;23;20088;-77
2022/03/08 07:14:09;;;;;;;25.30;13.52;;;0.30;99.90;;;;;;6241058;23;20500;-80
2022/03/08 07:16:34;;;;;;;21.25;13.20;;;0.30;99.90;;;;;;6242969;23;20058;-78
2022/03/08 07:19:00;;;;;;;20.95;13.20;;;0.50;99.90;;;;;;6215279;23;20012;-80
2022/03/08 07:21:26;;;;;;;20.08;12.88;;;0.50;99.90;;;;;;6214723;23;20122;-79
2022/03/08 07:23:51;;;;;;;22.70;13.50;;;0.50;99.90;;;;;;6214598;23;20371;-80
2022/03/08 07:26:17;;;;;;;22.95;13.25;;;0.60;99.90;;;;;;6239235;23;20023;-81
2022/03/08 07:28:43;;;;;;;24.15;13.00;;;0.70;99.90;;;;;;6212437;23;20024;-78
2022/03/08 07:31:09;;;;;;;21.50;12.85;;;0.80;99.90;;;;;;6239074;23;20087;-80
2022/03/08 07:33:35;;;;;;;22.58;13.52;;;0.80;99.90;;;;;;6239191;23;20016;-78
2022/03/08 07:36:01;;;;;;;22.55;12.40;;;0.90;99.90;;;;;;6215491;23;20027;-79
2022/03/08 07:38:27;;;;;;;21.88;12.60;;;1.00;99.90;;;;;;6213851;23;20012;-78
2022/03/08 07:40:53;;;;;;;20.02;11.57;;;1.10;99.90;;;;;;6215179;23;20810;-81
2022/03/08 07:43:19;;;;;;;20.67;12.88;;;1.20;99.90;;;;;;6240626;23;20016;-82
2022/03/08 07:45:44;;;;;;;22.77;12.85;;;1.30;99.90;;;;;;6215330;23;20019;-78
2022/03/08 07:48:10;;;;;;;19.38;12.13;;;1.40;99.90;;;;;;6216209;23;20016;-80
2022/03/08 07:50:36;;;;;;;20.17;11.90;;;1.40;99.90;;;;;;6242660;23;20455;-80
2022/03/08 07:53:03;;;;;;;22.38;12.93;;;1.50;99.90;;;;;;6242515;23;20051;-79
2022/03/08 07:55:29;;;;;;;22.77;11.55;;;1.60;99.90;;;;;;6192873;23;20016;-78
2022/03/08 07:57:57;;;;;;;20.25;11.65;;;1.60;99.90;;;;;;6243634;23;20059;-80
2022/03/08 08:00:23;;;;;;;17.33;10.52;;;1.80;99.90;;;;;;6242604;23;20015;-78
2022/03/08 08:02:49;;;;;;;15.32;10.38;;;1.90;99.90;;;;;;6243870;23;20590;-78
2022/03/08 08:05:16;;;;;;;21.90;11.15;;;2.00;99.90;;;;;;6215390;23;20023;-77
2022/03/08 08:07:42;;;;;;;15.98;9.75;;;2.10;99.90;;;;;;6190056;23;20012;-77
2022/03/08 08:10:08;;;;;;;15.55;9.55;;;2.10;99.90;;;;;;6242218;23;20016;-77
2022/03/08 08:12:34;;;;;;;18.23;11.40;;;2.20;99.90;;;;;;6242485;23;20514;-77
2022/03/08 08:15:00;;;;;;;18.63;11.25;;;2.30;99.90;;;;;;6215904;23;20068;-77
2022/03/08 08:17:26;;;;;;;14.32;10.27;;;2.30;99.90;;;;;;6244070;22;20357;-78
2022/03/08 08:19:52;;;;;;;15.35;10.00;;;2.40;99.90;;;;;;6243049;23;20016;-76
2022/03/08 08:22:17;;;;;;;17.42;10.88;;;2.50;99.90;;;;;;6242751;23;20016;-77
2022/03/08 08:24:43;;;;;;;16.38;10.60;;;2.60;99.90;;;;;;6243603;23;20039;-78
2022/03/08 08:27:09;;;;;;;17.45;10.80;;;2.60;99.90;;;;;;6216501;23;20016;-80
2022/03/08 08:29:34;;;;;;;16.95;10.32;;;2.80;99.90;;;;;;6215628;23;20424;-79
2022/03/08 08:32:00;;;;;;;15.18;10.27;;;2.80;99.90;;;;;;6243521;23;20040;-78
2022/03/08 08:34:26;;;;;;;15.93;10.32;;;2.80;99.90;;;;;;6242316;23;20016;-77
2022/03/08 08:36:52;;;;;;;15.52;10.40;;;2.90;99.90;;;;;;6242899;23;20020;-79
2022/03/08 08:39:17;;;;;;;13.43;10.23;;;3.30;99.90;;;;;;6242283;23;20177;-76
2022/03/08 08:41:44;;;;;;;15.50;10.02;;;3.20;99.90;;;;;;6243861;23;20008;-79
2022/03/08 08:44:11;;;;;;;16.27;10.27;;;3.20;99.90;;;;;;6217606;23;20026;-73
2022/03/08 08:46:37;;;;;;;15.68;10.18;;;3.20;99.90;;;;;;6243032;23;20092;-81
2022/03/08 08:49:03;;;;;;;16.13;10.30;;;3.30;99.90;;;;;;6242546;23;20374;-80
2022/03/08 08:51:29;;;;;;;16.63;10.50;;;3.40;99.90;;;;;;6218488;23;20451;-75
2022/03/08 08:53:55;;;;;;;15.70;9.50;;;3.80;99.90;;;;;;6242776;23;20413;-76
2022/03/08 08:56:21;;;;;;;14.15;9.88;;;3.60;99.90;;;;;;6243447;23;20047;-75
2022/03/08 08:58:47;;;;;;;17.10;10.25;;;3.60;99.90;;;;;;6241138;23;20013;-76
2022/03/08 09:01:13;;;;;;;16.45;9.93;;;3.60;99.90;;;;;;6217201;23;20040;-79
2022/03/08 09:03:39;;;;;;;15.35;9.95;;;3.70;99.90;;;;;;6242948;23;20022;-77
2022/03/08 09:06:05;;;;;;;16.08;8.98;;;3.80;99.90;;;;;;6243375;22;20154;-77
2022/03/08 09:08:31;;;;;;;16.60;9.82;;;4.00;99.90;;;;;;6242902;23;20108;-76
2022/03/08 09:10:56;;;;;;;19.45;9.85;;;4.10;99.90;;;;;;6217601;23;20321;-81
2022/03/08 09:13:24;;;;;;;14.93;9.30;;;4.30;99.90;;;;;;6242154;23;20193;-78
2022/03/08 09:15:49;;;;;;;15.20;9.63;;;4.30;99.90;;;;;;6217826;23;20016;-79
2022/03/08 09:18:16;;;;;;;16.38;9.88;;;4.40;99.90;;;;;;6242294;23;20139;-78
2022/03/08 09:20:42;;;;;;;13.00;8.43;;;4.50;99.90;;;;;;6242316;23;20019;-80
2022/03/08 09:23:09;;;;;;;15.10;9.55;;;4.50;99.90;;;;;;6216167;23;20012;-76
2022/03/08 09:25:35;;;;;;;16.30;10.40;;;4.70;99.90;;;;;;6216760;23;20110;-77
2022/03/08 09:28:06;;;;;;;16.13;9.77;;;4.60;99.90;;;;;;6219013;23;20018;-77
2022/03/08 09:30:34;;;;;;;17.13;9.88;;;4.80;99.90;;;;;;6241788;23;20482;-77
2022/03/08 09:33:01;;;;;;;14.07;9.77;;;4.80;99.90;;;;;;6243356;22;20016;-75
2022/03/08 09:35:28;;;;;;;17.17;9.98;;;4.80;99.90;;;;;;6216897;23;20039;-83
2022/03/08 09:37:54;;;;;;;16.50;10.02;;;4.80;99.90;;;;;;6216380;23;20435;-82
2022/03/08 09:40:20;;;;;;;12.55;8.88;;;5.00;99.90;;;;;;6241936;23;20019;-77
2022/03/08 09:42:48;;;;;;;17.10;9.52;;;5.00;99.90;;;;;;6216498;23;20016;-81
2022/03/08 09:45:14;;;;;;;13.65;9.68;;;5.10;99.90;;;;;;6240823;23;20100;-78
2022/03/08 09:47:40;;;;;;;12.90;8.85;;;5.20;99.90;;;;;;6242388;23;20020;-77
2022/03/08 09:50:08;;;;;;;12.20;8.63;;;5.30;99.90;;;;;;6241847;23;20301;-80
2022/03/08 09:52:37;;;;;;;15.13;8.60;;;5.40;99.90;;;;;;6216645;23;20442;-80
2022/03/08 09:55:09;;;;;;;15.98;7.88;;;5.50;99.90;;;;;;6241249;23;20019;-80
2022/03/08 09:57:34;;;;;;;12.50;8.27;;;5.60;99.90;;;;;;6216974;23;20012;-79
2022/03/08 10:00:00;;;;;;;11.02;8.20;;;5.60;99.90;;;;;;6215677;23;20023;-80
2022/03/08 10:02:51;;;;;;;13.68;7.80;;;5.80;99.90;;;;;;6242356;23;20091;-78
2022/03/08 10:05:23;;;;;;;11.27;7.53;;;5.90;99.90;;;;;;6241289;23;20026;-78
2022/03/08 10:08:19;;;;;;;8.52;6.20;;;6.10;99.90;;;;;;6241342;22;20613;-81
2022/03/08 10:11:00;;;;;;;;;;;6.30;99.90;;;;;;6241720;23;20012;-81
2022/03/08 10:13:32;;;;;;;11.32;7.45;;;6.40;99.90;;;;;;6241620;23;19916;-80
2022/03/08 10:16:10;;;;;;;10.18;7.28;;;6.50;99.90;;;;;;6217076;23;20015;-77
2022/03/08 10:18:47;;;;;;;10.15;7.10;;;6.50;99.90;;;;;;6241603;23;20016;-78
2022/03/08 10:21:28;;;;;;;12.13;7.40;;;6.70;99.90;;;;;;6241781;23;20404;-79
2022/03/08 10:23:55;;;;;;;10.38;6.60;;;6.80;99.90;;;;;;6241543;23;20050;-78
2022/03/08 10:26:21;;;;;;;11.15;6.38;;;7.00;99.90;;;;;;6242129;23;20016;-77
2022/03/08 10:28:50;;;;;;;11.40;6.70;;;7.20;99.90;;;;;;6240081;23;20118;-78
2022/03/08 10:31:16;;;;;;;8.68;5.82;;;7.30;99.90;;;;;;6190582;23;20078;-78
2022/03/08 10:33:43;;;;;;;11.23;6.55;;;7.50;99.90;;;;;;6191096;23;20401;-80
2022/03/08 10:36:16;;;;;;;9.70;6.60;;;7.70;99.90;;;;;;6191037;23;20097;-77
2022/03/08 10:39:08;;;;;;;8.45;5.10;;;7.90;99.90;;;;;;6190773;23;20012;-76
2022/03/08 10:41:49;;;;;;;7.63;5.90;;;8.00;99.90;;;;;;6217220;23;20012;-77
2022/03/08 10:44:16;;;;;;;10.20;6.35;;;8.20;99.90;;;;;;6215312;23;20012;-79
2022/03/08 10:46:42;;;;;;;9.93;6.47;;;8.30;99.90;;;;;;6190657;23;20383;-79
2022/03/08 10:49:13;;;;;;;7.93;5.63;;;8.40;99.90;;;;;;6215536;23;20024;-80
2022/03/08 10:51:39;;;;;;;6.93;5.53;;;8.70;99.90;;;;;;6215290;23;20019;-82
2022/03/08 10:54:13;;;;;;;7.97;5.50;;;8.80;99.90;;;;;;6215685;23;20012;-81
2022/03/08 10:56:45;;;;;;;10.05;6.05;;;8.90;99.90;;;;;;6190629;23;20020;-81
2022/03/08 10:59:14;;;;;;;8.98;5.35;;;9.10;99.90;;;;;;6214064;23;20070;-82
2022/03/08 11:01:40;;;;;;;9.25;5.53;;;9.30;99.90;;;;;;6216010;23;20428;-76
2022/03/08 11:04:20;;;;;;;7.28;5.78;;;9.50;99.90;;;;;;6190879;23;20404;-83
2022/03/08 11:06:50;;;;;;;6.78;5.05;;;9.60;99.10;;;;;;6243400;22;20020;-77
2022/03/08 11:09:17;;;;;;;7.22;5.30;;;9.60;99.10;;;;;;6215480;23;20047;-80
2022/03/08 11:11:43;;;;;;;6.22;4.75;;;9.60;97.90;;;;;;6188782;23;20023;-79
2022/03/08 11:14:09;;;;;;;5.88;4.20;;;9.70;97.10;;;;;;6189200;23;20015;-79
2022/03/08 11:16:36;;;;;;;7.22;4.75;;;9.70;96.30;;;;;;6189295;23;20051;-78
2022/03/08 11:19:05;;;;;;;7.63;5.05;;;9.70;98.80;;;;;;6192634;23;20032;-77
2022/03/08 11:21:33;;;;;;;7.88;4.85;;;9.90;99.40;;;;;;6216097;23;20012;-74
2022/03/08 11:24:00;;;;;;;7.97;5.18;;;10.00;98.60;;;;;;6190819;23;20012;-78
2022/03/08 11:26:26;;;;;;;6.68;4.97;;;10.10;99.90;;;;;;6195024;23;20023;-81
2022/03/08 11:28:53;;;;;;;6.38;4.80;;;10.20;98.50;;;;;;6189862;23;20046;-79
2022/03/08 11:31:24;;;;;;;6.57;5.30;;;10.30;98.20;;;;;;6215187;23;20331;-79
2022/03/08 11:34:12;;;;;;;7.82;5.22;;;10.50;99.30;;;;;;6240463;23;20020;-81
2022/03/08 11:36:44;;;;;;;7.25;4.60;;;10.70;99.10;;;;;;6241096;23;20020;-84
2022/03/08 11:39:21;;;;;;;6.10;4.68;;;10.60;95.70;;;;;;6216736;23;20095;-79
2022/03/08 11:41:58;;;;;;;6.88;4.45;;;10.70;96.60;;;;;;6241279;23;20019;-78
2022/03/08 11:44:30;;;;;;;8.02;5.07;;;10.70;95.80;;;;;;6214867;23;20071;-77
2022/03/08 11:47:09;;;;;;;7.68;4.72;;;10.80;96.10;;;;;;6216027;23;20078;-77
2022/03/08 11:49:56;;;;;;;5.72;4.28;;;11.00;96.70;;;;;;6240645;23;20086;-77
2022/03/08 11:52:28;;;;;;;6.45;5.13;;;11.00;97.40;;;;;;6241171;23;20344;-78
2022/03/08 11:55:03;;;;;;;6.47;5.07;;;11.20;98.20;;;;;;6215211;23;20032;-78
2022/03/08 11:57:51;;;;;;;7.03;4.82;;;11.20;97.40;;;;;;6240592;23;20008;-78
2022/03/08 12:00:33;;;;;;;7.20;5.03;;;11.20;98.10;;;;;;6239345;23;20047;-78
2022/03/08 12:03:03;;;;;;;5.35;4.60;;;11.30;96.70;;;;;;6240446;23;20012;-79
2022/03/08 12:05:58;;;;;;;12.27;4.95;;;11.30;96.50;;;;;;6214271;23;20087;-79
2022/03/08 12:08:27;;;;;;;;;;;11.40;96.10;;;;;;6241366;23;20044;-77
2022/03/08 12:11:04;;;;;;;7.25;4.53;;;11.50;96.50;;;;;;6215801;23;19934;-78
2022/03/08 12:13:32;;;;;;;6.43;4.40;;;11.60;97.20;;;;;;6239366;23;20138;-79
2022/03/08 12:16:08;;;;;;;6.38;4.53;;;11.80;97.80;;;;;;6241435;23;20090;-76
2022/03/08 12:18:51;;;;;;;7.18;4.38;;;12.00;95.40;;;;;;6216559;23;20051;-79
2022/03/08 12:21:16;;;;;;;6.35;4.40;;;11.90;92.60;;;;;;6241764;23;20066;-79
2022/03/08 12:24:06;;;;;;;7.20;4.28;;;12.00;93.20;;;;;;6241746;23;20012;-77
2022/03/08 12:26:56;;;;;;;5.63;3.92;;;11.80;92.00;;;;;;6240811;23;20026;-78
2022/03/08 12:29:28;;;;;;;5.88;4.40;;;12.00;91.40;;;;;;6099500;23;20466;-76
2022/03/08 12:31:57;;;;;;;5.38;3.70;;;11.90;90.80;;;;;;6125452;23;20390;-79
2022/03/08 12:34:38;;;;;;;5.20;3.65;;;12.00;91.70;;;;;;6100082;23;20159;-81
2022/03/08 12:37:08;;;;;;;4.93;3.85;;;12.00;90.60;;;;;;6127272;23;20017;-79
2022/03/08 12:40:05;;;;;;;5.80;4.32;;;12.00;90.70;;;;;;6101508;23;20018;-78
2022/03/08 12:42:36;;;;;;;4.63;3.60;;;12.10;92.50;;;;;;6039191;23;20380;-80
2022/03/08 12:45:07;;;;;;;5.90;4.00;;;12.30;90.90;;;;;;6014665;23;20084;-77